Milton Township, Maine
Current Conditions -  °F | °C
As of 6:15 PM on Thursday 27 Nov 2014 (Local Time) from KLEW Reporting Station
Clear Clear  
Wind Chill: 23°   Ceiling: Unl
Heat Index: 28°   Visibility: 10mi
Dew Point: 19°   Wind: 5mph
Humidity: 69%   Direction: 340°NNW
Pressure: 29.98"   Gusts: NA
Location:  44.3802°N, 70.6456°W
Report Text: KLEW 272315Z AUTO 34004KT 10SM CLR M02/M07 A2998 RMK AO1
Loading
Personal Weather Stations






























Interactive Weather Map New forecast layout! Learn more

10-Day Weather Forecast

Advertisements
Track Severe Weather on mobile